Hamnavoe — VSTY7 — position and weather

sailwx.info

Track history (hours):
 
Tides and Currents Weather Stations Pressure Air Temp Water Temp Dewpoint Dewpoint Depression Visibility Wind Speed Wind Dir Waves Ship Positions

Hamnavoe

Operator: NorthLink Orkey & Shetland Ferries Ltd

Last reported at 2019-Nov-20 08:30 UTC. Time now 2019-Nov-20 10:07 UTC.
Position N 58°37' W 003°32'.

Length 112 m; draft 4.4 m.

Type: Ship. MMSI: 235449000.

Date/timePositionNaut miles runAvg speedWind from/ knotsBaromVisibWave heightAir tempDewpointWater temp
2019-Nov-20 08:30N 58°37' W 003°32'8 8.1
2019-Nov-20 07:30N 58°45' W 003°30'1514.6
2019-Nov-20 06:30N 58°58' W 003°18'0 0.1
2019-Nov-20 04:30N 58°58' W 003°18'0 0.0
2019-Nov-20 03:30N 58°58' W 003°18'0 0.0
2019-Nov-20 02:30N 58°58' W 003°18'0 0.0
2019-Nov-19 23:30N 58°58' W 003°18'0 0.0
2019-Nov-19 22:30N 58°58' W 003°18'0 0.0
2019-Nov-19 21:00N 58°58' W 003°18'22 9.0
2019-Nov-19 18:30N 58°37' W 003°32'1 2.7
2019-Nov-19 18:00N 58°38' W 003°31'2114.1
2019-Nov-19 16:30N 58°58' W 003°18'0 0.0
2019-Nov-19 14:27N 58°58' W 003°18'0 0.0
2019-Nov-19 13:30N 58°58' W 003°18'0 0.0
2019-Nov-19 10:57N 58°58' W 003°18'16 8.3
2019-Nov-19 09:00N 58°43' W 003°30'10 5.0
2019-Nov-19 07:00N 58°53' W 003°28'7 2.8
2019-Nov-19 04:29N 58°58' W 003°18'0 0.0
2019-Nov-19 01:59N 58°58' W 003°18'0 0.0
2019-Nov-18 23:29N 58°58' W 003°18'0 0.0
2019-Nov-18 22:29N 58°58' W 003°18'0 0.0
2019-Nov-18 21:59N 58°58' W 003°18'0 0.0
2019-Nov-18 21:29N 58°58' W 003°18'0 0.0
2019-Nov-18 20:30N 58°58' W 003°18'3 5.5
2019-Nov-18 20:00N 58°57' W 003°22'917.7
2019-Nov-18 19:30N 58°49' W 003°29'11 3.1
2019-Nov-18 15:59N 58°58' W 003°18'0 0.0
2019-Nov-18 15:29N 58°58' W 003°18'0 0.0
2019-Nov-18 12:59N 58°58' W 003°18'0 0.0
2019-Nov-18 12:29N 58°58' W 003°18'0 0.0
2019-Nov-18 10:57N 58°58' W 003°18'9 5.9
2019-Nov-18 09:30N 58°51' W 003°28'9 2.1
2019-Nov-18 05:28N 58°58' W 003°18'0 0.0
2019-Nov-18 04:58N 58°58' W 003°18'0 0.0
2019-Nov-18 03:58N 58°58' W 003°18'0 0.0
2019-Nov-18 02:52N 58°58' W 003°18'0 0.0
2019-Nov-18 01:58N 58°58' W 003°18'0 0.0
2019-Nov-18 00:58N 58°58' W 003°18'0 0.0
2019-Nov-17 23:28N 58°58' W 003°18'0 0.0
2019-Nov-17 22:58N 58°58' W 003°18'0 0.0
2019-Nov-17 21:58N 58°58' W 003°18'4 2.0
2019-Nov-17 20:00N 58°56' W 003°25'10 4.1
2019-Nov-17 17:30N 58°46' W 003°30'917.8
2019-Nov-17 17:00N 58°55' W 003°27'6 0.6
2019-Nov-17 07:25N 58°58' W 003°18'0 0.0
2019-Nov-17 04:28N 58°58' W 003°18'0 0.0
2019-Nov-17 03:58N 58°58' W 003°18'0 0.0
2019-Nov-17 03:28N 58°58' W 003°18'0 0.0
2019-Nov-17 01:28N 58°58' W 003°18'0 0.0
2019-Nov-16 21:25N 58°58' W 003°18'0 0.0
2019-Nov-16 20:28N 58°58' W 003°18'1010.4
2019-Nov-16 19:30N 58°49' W 003°28'918.9
2019-Nov-16 19:00N 58°40' W 003°31'3 6.9
2019-Nov-16 18:30N 58°37' W 003°32'9 8.8
2019-Nov-16 17:30N 58°45' W 003°30'918.3
2019-Nov-16 17:00N 58°54' W 003°26'6 5.1
2019-Nov-16 15:55N 58°58' W 003°18'0 0.0
2019-Nov-16 15:25N 58°58' W 003°18'0 0.0
2019-Nov-16 07:26N 58°58' W 003°18'0 0.0
2019-Nov-16 06:26N 58°58' W 003°18'0 0.0
2019-Nov-16 03:26N 58°58' W 003°18'0 0.0
2019-Nov-16 02:56N 58°58' W 003°18'0 0.0
2019-Nov-16 02:29N 58°58' W 003°18'0 0.0
2019-Nov-15 22:29N 58°58' W 003°18'3 1.3
2019-Nov-15 20:00N 58°56' W 003°23'1717.4
2019-Nov-15 19:00N 58°39' W 003°31'3 2.9
2019-Nov-15 18:00N 58°37' W 003°32'22 9.0
2019-Nov-15 15:30N 58°58' W 003°18'0 0.0
2019-Nov-15 13:30N 58°58' W 003°18'0 0.0
2019-Nov-15 12:00N 58°58' W 003°18'8 3.3
2019-Nov-15 09:30N 58°51' W 003°28'1514.1
2019-Nov-15 08:27N 58°37' W 003°32'1611.3
2019-Nov-15 07:00N 58°53' W 003°28'7 2.9
2019-Nov-15 04:30N 58°58' W 003°18'0 0.0
2019-Nov-15 03:30N 58°58' W 003°18'0 0.0
2019-Nov-15 00:00N 58°58' W 003°18'0 0.0
2019-Nov-14 22:30N 58°58' W 003°18'11 3.7
2019-Nov-14 19:30N 58°48' W 003°28'816.5
2019-Nov-14 19:00N 58°40' W 003°31'4 7.2
2019-Nov-14 18:30N 58°37' W 003°32'0 0.6
2019-Nov-14 18:00N 58°37' W 003°32'918.9
2019-Nov-14 17:30N 58°46' W 003°29'13 1.9
2019-Nov-14 10:30N 58°58' W 003°18'0 0.1
2019-Nov-14 06:30N 58°57' W 003°18'0 0.2
2019-Nov-14 03:59N 58°58' W 003°18'0 0.0
2019-Nov-14 01:59N 58°58' W 003°18'0 0.0
2019-Nov-13 23:29N 58°58' W 003°18'0 0.0
2019-Nov-13 21:29N 58°58' W 003°18'0 0.0
2019-Nov-13 20:29N 58°58' W 003°18'2211.3
2019-Nov-13 18:31N 58°37' W 003°32'0 0.8
2019-Nov-13 18:00N 58°37' W 003°32'2211.1
2019-Nov-13 16:00N 58°58' W 003°18'0 0.0
2019-Nov-13 14:29N 58°58' W 003°18'0 0.0
2019-Nov-13 13:59N 58°58' W 003°18'0 0.0
2019-Nov-13 12:29N 58°58' W 003°18'0 0.0
2019-Nov-13 11:23N 58°58' W 003°18'1 0.7
2019-Nov-13 10:00N 58°57' W 003°17'815.7
2019-Nov-13 09:30N 58°51' W 003°28'1514.8
2019-Nov-13 08:30N 58°37' W 003°32'22 8.9
2019-Nov-13 05:59N 58°58' W 003°18'0 0.0
2019-Nov-13 02:59N 58°58' W 003°18'0 0.0
2019-Nov-13 02:29N 58°58' W 003°18'0 0.0
2019-Nov-13 01:59N 58°58' W 003°18'0 0.0
2019-Nov-12 23:56N 58°58' W 003°18'0 0.0
2019-Nov-12 23:29N 58°58' W 003°18'0 0.0
2019-Nov-12 21:59N 58°58' W 003°18'21 5.4
2019-Nov-12 18:00N 58°38' W 003°31'21 8.5
2019-Nov-12 15:30N 58°58' W 003°18'0 0.0
2019-Nov-12 15:00N 58°58' W 003°18'0 0.0
2019-Nov-12 14:00N 58°58' W 003°18'0 0.0
2019-Nov-12 13:30N 58°58' W 003°18'0 0.0
2019-Nov-12 13:00N 58°58' W 003°18'0 0.0
2019-Nov-12 12:00N 58°58' W 003°18'0 0.0
2019-Nov-12 11:31N 58°58' W 003°18'1 0.8
2019-Nov-12 10:00N 58°57' W 003°19'1615.8
2019-Nov-12 09:00N 58°42' W 003°30'3 1.7
2019-Nov-12 07:30N 58°45' W 003°30'15 9.4
2019-Nov-12 05:58N 58°58' W 003°18'0 0.0
2019-Nov-12 03:25N 58°58' W 003°18'0 0.0
2019-Nov-12 02:28N 58°58' W 003°18'0 0.0
2019-Nov-12 01:28N 58°58' W 003°18'0 0.0
2019-Nov-11 23:58N 58°58' W 003°18'22 4.1
2019-Nov-11 18:30N 58°37' W 003°32'10 9.7
2019-Nov-11 17:30N 58°46' W 003°29'1019.4
2019-Nov-11 17:00N 58°56' W 003°26'5 9.1
2019-Nov-11 16:30N 58°58' W 003°18'0 0.0
2019-Nov-11 15:00N 58°58' W 003°18'0 0.0
2019-Nov-11 12:57N 58°58' W 003°18'0 0.0
2019-Nov-11 12:00N 58°58' W 003°18'0 0.0
2019-Nov-11 10:30N 58°58' W 003°18'1610.6
2019-Nov-11 09:01N 58°43' W 003°30'16 5.2
2019-Nov-11 05:59N 58°58' W 003°18'0 0.0
2019-Nov-11 05:29N 58°58' W 003°18'0 0.0
2019-Nov-11 03:26N 58°58' W 003°18'0 0.0
2019-Nov-11 02:20N 58°58' W 003°18'0 0.0
2019-Nov-11 01:59N 58°58' W 003°18'0 0.0
2019-Nov-11 00:56N 58°58' W 003°18'0 0.0
2019-Nov-11 00:26N 58°58' W 003°18'0 0.0
2019-Nov-10 23:26N 58°58' W 003°18'0 0.0
2019-Nov-10 22:29N 58°58' W 003°18'0 0.0
2019-Nov-10 20:59N 58°58' W 003°18'22 9.1
2019-Nov-10 18:30N 58°37' W 003°32'22 9.0
2019-Nov-10 16:00N 58°58' W 003°18'1 0.1
2019-Nov-10 09:00N 58°57' W 003°18'  
Track history (hours):
 
Tides and Currents Weather Stations Pressure Air Temp Water Temp Dewpoint Dewpoint Depression Visibility Wind Speed Wind Dir Waves Ship Positions

Hamnavoe

Operator: NorthLink Orkey & Shetland Ferries Ltd

Last reported at 2019-Nov-20 08:30 UTC. Time now 2019-Nov-20 10:07 UTC.
Position N 58°37' W 003°32'.

Length 112 m; draft 4.4 m.

Type: Ship. MMSI: 235449000.

Date/timePositionNaut miles runAvg speedWind from/ knotsBaromVisibWave heightAir tempDewpointWater temp
2019-Nov-20 08:30N 58°37' W 003°32'8 8.1
2019-Nov-20 07:30N 58°45' W 003°30'1514.6
2019-Nov-20 06:30N 58°58' W 003°18'0 0.1
2019-Nov-20 04:30N 58°58' W 003°18'0 0.0
2019-Nov-20 03:30N 58°58' W 003°18'0 0.0
2019-Nov-20 02:30N 58°58' W 003°18'0 0.0
2019-Nov-19 23:30N 58°58' W 003°18'0 0.0
2019-Nov-19 22:30N 58°58' W 003°18'0 0.0
2019-Nov-19 21:00N 58°58' W 003°18'22 9.0
2019-Nov-19 18:30N 58°37' W 003°32'1 2.7
2019-Nov-19 18:00N 58°38' W 003°31'2114.1
2019-Nov-19 16:30N 58°58' W 003°18'0 0.0
2019-Nov-19 14:27N 58°58' W 003°18'0 0.0
2019-Nov-19 13:30N 58°58' W 003°18'0 0.0
2019-Nov-19 10:57N 58°58' W 003°18'16 8.3
2019-Nov-19 09:00N 58°43' W 003°30'10 5.0
2019-Nov-19 07:00N 58°53' W 003°28'7 2.8
2019-Nov-19 04:29N 58°58' W 003°18'0 0.0
2019-Nov-19 01:59N 58°58' W 003°18'0 0.0
2019-Nov-18 23:29N 58°58' W 003°18'0 0.0
2019-Nov-18 22:29N 58°58' W 003°18'0 0.0
2019-Nov-18 21:59N 58°58' W 003°18'0 0.0
2019-Nov-18 21:29N 58°58' W 003°18'0 0.0
2019-Nov-18 20:30N 58°58' W 003°18'3 5.5
2019-Nov-18 20:00N 58°57' W 003°22'917.7
2019-Nov-18 19:30N 58°49' W 003°29'11 3.1
2019-Nov-18 15:59N 58°58' W 003°18'0 0.0
2019-Nov-18 15:29N 58°58' W 003°18'0 0.0
2019-Nov-18 12:59N 58°58' W 003°18'0 0.0
2019-Nov-18 12:29N 58°58' W 003°18'0 0.0
2019-Nov-18 10:57N 58°58' W 003°18'9 5.9
2019-Nov-18 09:30N 58°51' W 003°28'9 2.1
2019-Nov-18 05:28N 58°58' W 003°18'0 0.0
2019-Nov-18 04:58N 58°58' W 003°18'0 0.0
2019-Nov-18 03:58N 58°58' W 003°18'0 0.0
2019-Nov-18 02:52N 58°58' W 003°18'0 0.0
2019-Nov-18 01:58N 58°58' W 003°18'0 0.0
2019-Nov-18 00:58N 58°58' W 003°18'0 0.0
2019-Nov-17 23:28N 58°58' W 003°18'0 0.0
2019-Nov-17 22:58N 58°58' W 003°18'0 0.0
2019-Nov-17 21:58N 58°58' W 003°18'4 2.0
2019-Nov-17 20:00N 58°56' W 003°25'10 4.1
2019-Nov-17 17:30N 58°46' W 003°30'917.8
2019-Nov-17 17:00N 58°55' W 003°27'6 0.6
2019-Nov-17 07:25N 58°58' W 003°18'0 0.0
2019-Nov-17 04:28N 58°58' W 003°18'0 0.0
2019-Nov-17 03:58N 58°58' W 003°18'0 0.0
2019-Nov-17 03:28N 58°58' W 003°18'0 0.0
2019-Nov-17 01:28N 58°58' W 003°18'0 0.0
2019-Nov-16 21:25N 58°58' W 003°18'0 0.0
2019-Nov-16 20:28N 58°58' W 003°18'1010.4
2019-Nov-16 19:30N 58°49' W 003°28'918.9
2019-Nov-16 19:00N 58°40' W 003°31'3 6.9
2019-Nov-16 18:30N 58°37' W 003°32'9 8.8
2019-Nov-16 17:30N 58°45' W 003°30'918.3
2019-Nov-16 17:00N 58°54' W 003°26'6 5.1
2019-Nov-16 15:55N 58°58' W 003°18'0 0.0
2019-Nov-16 15:25N 58°58' W 003°18'0 0.0
2019-Nov-16 07:26N 58°58' W 003°18'0 0.0
2019-Nov-16 06:26N 58°58' W 003°18'0 0.0
2019-Nov-16 03:26N 58°58' W 003°18'0 0.0
2019-Nov-16 02:56N 58°58' W 003°18'0 0.0
2019-Nov-16 02:29N 58°58' W 003°18'0 0.0
2019-Nov-15 22:29N 58°58' W 003°18'3 1.3
2019-Nov-15 20:00N 58°56' W 003°23'1717.4
2019-Nov-15 19:00N 58°39' W 003°31'3 2.9
2019-Nov-15 18:00N 58°37' W 003°32'22 9.0
2019-Nov-15 15:30N 58°58' W 003°18'0 0.0
2019-Nov-15 13:30N 58°58' W 003°18'0 0.0
2019-Nov-15 12:00N 58°58' W 003°18'8 3.3
2019-Nov-15 09:30N 58°51' W 003°28'1514.1
2019-Nov-15 08:27N 58°37' W 003°32'1611.3
2019-Nov-15 07:00N 58°53' W 003°28'7 2.9
2019-Nov-15 04:30N 58°58' W 003°18'0 0.0
2019-Nov-15 03:30N 58°58' W 003°18'0 0.0
2019-Nov-15 00:00N 58°58' W 003°18'0 0.0
2019-Nov-14 22:30N 58°58' W 003°18'11 3.7
2019-Nov-14 19:30N 58°48' W 003°28'816.5
2019-Nov-14 19:00N 58°40' W 003°31'4 7.2
2019-Nov-14 18:30N 58°37' W 003°32'0 0.6
2019-Nov-14 18:00N 58°37' W 003°32'918.9
2019-Nov-14 17:30N 58°46' W 003°29'13 1.9
2019-Nov-14 10:30N 58°58' W 003°18'0 0.1
2019-Nov-14 06:30N 58°57' W 003°18'0 0.2
2019-Nov-14 03:59N 58°58' W 003°18'0 0.0
2019-Nov-14 01:59N 58°58' W 003°18'0 0.0
2019-Nov-13 23:29N 58°58' W 003°18'0 0.0
2019-Nov-13 21:29N 58°58' W 003°18'0 0.0
2019-Nov-13 20:29N 58°58' W 003°18'2211.3
2019-Nov-13 18:31N 58°37' W 003°32'0 0.8
2019-Nov-13 18:00N 58°37' W 003°32'2211.1
2019-Nov-13 16:00N 58°58' W 003°18'0 0.0
2019-Nov-13 14:29N 58°58' W 003°18'0 0.0
2019-Nov-13 13:59N 58°58' W 003°18'0 0.0
2019-Nov-13 12:29N 58°58' W 003°18'0 0.0
2019-Nov-13 11:23N 58°58' W 003°18'1 0.7
2019-Nov-13 10:00N 58°57' W 003°17'815.7
2019-Nov-13 09:30N 58°51' W 003°28'1514.8
2019-Nov-13 08:30N 58°37' W 003°32'22 8.9
2019-Nov-13 05:59N 58°58' W 003°18'0 0.0
2019-Nov-13 02:59N 58°58' W 003°18'0 0.0
2019-Nov-13 02:29N 58°58' W 003°18'0 0.0
2019-Nov-13 01:59N 58°58' W 003°18'0 0.0
2019-Nov-12 23:56N 58°58' W 003°18'0 0.0
2019-Nov-12 23:29N 58°58' W 003°18'0 0.0
2019-Nov-12 21:59N 58°58' W 003°18'21 5.4
2019-Nov-12 18:00N 58°38' W 003°31'21 8.5
2019-Nov-12 15:30N 58°58' W 003°18'0 0.0
2019-Nov-12 15:00N 58°58' W 003°18'0 0.0
2019-Nov-12 14:00N 58°58' W 003°18'0 0.0
2019-Nov-12 13:30N 58°58' W 003°18'0 0.0
2019-Nov-12 13:00N 58°58' W 003°18'0 0.0
2019-Nov-12 12:00N 58°58' W 003°18'0 0.0
2019-Nov-12 11:31N 58°58' W 003°18'1 0.8
2019-Nov-12 10:00N 58°57' W 003°19'1615.8
2019-Nov-12 09:00N 58°42' W 003°30'3 1.7
2019-Nov-12 07:30N 58°45' W 003°30'15 9.4
2019-Nov-12 05:58N 58°58' W 003°18'0 0.0
2019-Nov-12 03:25N 58°58' W 003°18'0 0.0
2019-Nov-12 02:28N 58°58' W 003°18'0 0.0
2019-Nov-12 01:28N 58°58' W 003°18'0 0.0
2019-Nov-11 23:58N 58°58' W 003°18'22 4.1
2019-Nov-11 18:30N 58°37' W 003°32'10 9.7
2019-Nov-11 17:30N 58°46' W 003°29'1019.4
2019-Nov-11 17:00N 58°56' W 003°26'5 9.1
2019-Nov-11 16:30N 58°58' W 003°18'0 0.0
2019-Nov-11 15:00N 58°58' W 003°18'0 0.0
2019-Nov-11 12:57N 58°58' W 003°18'0 0.0
2019-Nov-11 12:00N 58°58' W 003°18'0 0.0
2019-Nov-11 10:30N 58°58' W 003°18'1610.6
2019-Nov-11 09:01N 58°43' W 003°30'16 5.2
2019-Nov-11 05:59N 58°58' W 003°18'0 0.0
2019-Nov-11 05:29N 58°58' W 003°18'0 0.0
2019-Nov-11 03:26N 58°58' W 003°18'0 0.0
2019-Nov-11 02:20N 58°58' W 003°18'0 0.0
2019-Nov-11 01:59N 58°58' W 003°18'0 0.0
2019-Nov-11 00:56N 58°58' W 003°18'0 0.0
2019-Nov-11 00:26N 58°58' W 003°18'0 0.0
2019-Nov-10 23:26N 58°58' W 003°18'0 0.0
2019-Nov-10 22:29N 58°58' W 003°18'0 0.0
2019-Nov-10 20:59N 58°58' W 003°18'22 9.1
2019-Nov-10 18:30N 58°37' W 003°32'22 9.0
2019-Nov-10 16:00N 58°58' W 003°18'1 0.1
2019-Nov-10 09:00N 58°57' W 003°18'  

Dump ship's entire track history